Grisham, Illinois
Current Conditions -  °F | °C
As of 11:15 PM on Friday 28 Nov 2014 (Local Time) from K3LF Reporting Station
Clear Clear  
Wind Chill: 28°   Ceiling: Unl
Heat Index: 37°   Visibility: 10mi
Dew Point: 32°   Wind: 16mph
Humidity: 82%   Direction: 170°S
Pressure: 29.88"   Gusts: NA
Location:  39.0351°N, 89.5256°W
Report Text: K3LF 290515Z AUTO 17014KT 10SM CLR 03/00 A2988 RMK AO2 T00280000
Loading
Personal Weather Stations






























Interactive Weather Map New forecast layout! Learn more

10-Day Weather Forecast

Advertisements
Track Severe Weather on mobile